Time;durP1;ratioP1;P1;durP2;ratioP2;P2;SDS_P1;SDS_P2;PMS_P1;PMS_P2;Temp;Humidity;BMP_temperature;BMP_pressure;BME280_temperature;BME280_humidity;BME280_pressure;Samples;Min_cycle;Max_cycle;Signal;HPM_P1;HPM_P2
2021/07/20 00:01:45;;;;;;;4.13;3.10;;;;;;;;;;4504556;28;20589;-59
2021/07/20 00:03:55;;;;;;;4.47;3.37;;;;;;;;;;4504494;28;20733;-59
2021/07/20 00:06:05;;;;;;;4.63;3.30;;;;;;;;;;4522283;28;20036;-59
2021/07/20 00:08:16;;;;;;;4.73;3.30;;;;;;;;;;4504090;28;20033;-59
2021/07/20 00:10:34;;;;;;;5.10;3.33;;;;;;;;;;4522199;28;20034;-60
2021/07/20 00:12:45;;;;;;;4.57;3.40;;;;;;;;;;4488543;28;21194;-59
2021/07/20 00:14:55;;;;;;;4.67;3.20;;;;;;;;;;4522180;28;28259;-59
2021/07/20 00:17:06;;;;;;;5.23;2.93;;;;;;;;;;4521749;28;20038;-59
2021/07/20 00:19:16;;;;;;;5.23;3.43;;;;;;;;;;4491948;28;20031;-59
2021/07/20 00:21:26;;;;;;;4.03;3.00;;;;;;;;;;4522247;28;20188;-59
2021/07/20 00:23:37;;;;;;;4.57;3.13;;;;;;;;;;4522433;28;20501;-58
2021/07/20 00:25:49;;;;;;;4.63;3.63;;;;;;;;;;4503383;28;20067;-59
2021/07/20 00:28:00;;;;;;;5.18;3.50;;;;;;;;;;4498430;28;20253;-59
2021/07/20 00:30:13;;;;;;;5.32;3.60;;;;;;;;;;4488615;28;20027;-59
2021/07/20 00:32:26;;;;;;;6.75;3.30;;;;;;;;;;4504316;28;21208;-59
2021/07/20 00:34:38;;;;;;;4.67;3.20;;;;;;;;;;4522561;28;20037;-59
2021/07/20 00:36:49;;;;;;;5.28;3.20;;;;;;;;;;4502886;28;20153;-59
2021/07/20 00:38:59;;;;;;;6.43;4.00;;;;;;;;;;4522115;28;20398;-59
2021/07/20 00:41:11;;;;;;;4.85;3.47;;;;;;;;;;4498997;28;20042;-59
2021/07/20 00:43:22;;;;;;;5.85;3.58;;;;;;;;;;4522454;28;20033;-59
2021/07/20 00:45:34;;;;;;;5.75;4.07;;;;;;;;;;4521724;28;20085;-59
2021/07/20 00:47:46;;;;;;;6.03;4.10;;;;;;;;;;4503721;28;20125;-59
2021/07/20 00:49:56;;;;;;;5.20;3.70;;;;;;;;;;4503753;28;20030;-59
2021/07/20 00:52:07;;;;;;;6.20;3.50;;;;;;;;;;4503888;28;20506;-59
2021/07/20 00:54:18;;;;;;;5.83;3.70;;;;;;;;;;4487708;28;20038;-59
2021/07/20 00:56:29;;;;;;;5.03;3.37;;;;;;;;;;4521605;28;20296;-58
2021/07/20 00:58:40;;;;;;;6.33;4.13;;;;;;;;;;4521759;28;20037;-59
2021/07/20 01:00:52;;;;;;;;;;;;;;;;;;4473856;28;20039;-59
2021/07/20 01:03:05;;;;;;;6.93;4.22;;;;;;;;;;4520335;28;19968;-59
2021/07/20 01:05:22;;;;;;;5.53;4.20;;;;;;;;;;4521586;28;20033;-59
2021/07/20 01:07:34;;;;;;;6.55;4.15;;;;;;;;;;4506588;28;20033;-59
2021/07/20 01:09:47;;;;;;;6.93;4.03;;;;;;;;;;4521092;28;20040;-59
2021/07/20 01:11:59;;;;;;;5.43;3.75;;;;;;;;;;4504031;28;20061;-59
2021/07/20 01:14:10;;;;;;;5.30;3.50;;;;;;;;;;4498033;28;20041;-59
2021/07/20 01:16:24;;;;;;;4.78;3.42;;;;;;;;;;4503689;28;20739;-59
2021/07/20 01:18:38;;;;;;;4.93;3.72;;;;;;;;;;4490378;28;20145;-59
2021/07/20 01:20:51;;;;;;;5.57;3.83;;;;;;;;;;4503450;28;20038;-59
2021/07/20 01:23:21;;;;;;;5.43;3.72;;;;;;;;;;4522059;28;20029;-58
2021/07/20 01:25:34;;;;;;;5.25;3.33;;;;;;;;;;4499212;28;20618;-59
2021/07/20 01:27:51;;;;;;;5.80;4.10;;;;;;;;;;4469952;28;20027;-58
2021/07/20 01:30:02;;;;;;;6.03;3.97;;;;;;;;;;4502735;28;20040;-58
2021/07/20 01:32:16;;;;;;;5.80;4.03;;;;;;;;;;4502948;28;20057;-59
2021/07/20 01:34:27;;;;;;;6.68;3.80;;;;;;;;;;4502948;28;20038;-59
2021/07/20 01:36:39;;;;;;;4.90;3.53;;;;;;;;;;4520988;28;20487;-59
2021/07/20 01:38:51;;;;;;;6.13;4.15;;;;;;;;;;4521284;28;20043;-59
2021/07/20 01:41:06;;;;;;;5.53;4.00;;;;;;;;;;4502462;28;20455;-59
2021/07/20 01:43:21;;;;;;;6.60;4.13;;;;;;;;;;4503957;28;20036;-59
2021/07/20 01:45:33;;;;;;;7.82;4.57;;;;;;;;;;4495969;28;20046;-58
2021/07/20 01:47:46;;;;;;;5.13;3.47;;;;;;;;;;4482799;28;20471;-58
2021/07/20 01:49:59;;;;;;;5.90;4.15;;;;;;;;;;4488132;28;20677;-59
2021/07/20 01:52:12;;;;;;;6.88;4.22;;;;;;;;;;4502633;28;20850;-59
2021/07/20 01:54:24;;;;;;;6.40;4.30;;;;;;;;;;4503107;28;20040;-59
2021/07/20 01:56:35;;;;;;;5.63;4.25;;;;;;;;;;4503431;28;20037;-58
2021/07/20 01:58:47;;;;;;;7.35;3.97;;;;;;;;;;4520114;28;20048;-59
2021/07/20 02:01:32;;;;;;;5.97;4.28;;;;;;;;;;4502656;28;20036;-59
2021/07/20 02:08:46;;;;;;;5.47;3.60;;;;;;;;;;4501934;28;20115;-59
2021/07/20 02:11:25;;;;;;;6.72;4.30;;;;;;;;;;4496277;28;20042;-58
2021/07/20 02:14:01;;;;;;;7.10;4.20;;;;;;;;;;4521386;28;20045;-59
2021/07/20 02:16:33;;;;;;;6.22;3.97;;;;;;;;;;4520940;28;20076;-58
2021/07/20 02:19:23;;;;;;;6.40;4.40;;;;;;;;;;4494918;28;20073;-59
2021/07/20 02:21:52;;;;;;;6.60;4.47;;;;;;;;;;4500629;28;20037;-59
2021/07/20 02:24:03;;;;;;;5.90;4.43;;;;;;;;;;4502772;28;20521;-59
2021/07/20 02:26:14;;;;;;;7.25;4.35;;;;;;;;;;4502154;28;20836;-58
2021/07/20 02:28:27;;;;;;;6.13;4.00;;;;;;;;;;4486178;28;20039;-59
2021/07/20 02:30:37;;;;;;;5.78;4.13;;;;;;;;;;4496503;28;20121;-59
2021/07/20 02:32:48;;;;;;;6.10;4.22;;;;;;;;;;4478269;28;20522;-59
2021/07/20 02:35:10;;;;;;;5.93;4.32;;;;;;;;;;4504259;28;20026;-58
2021/07/20 02:37:21;;;;;;;6.18;4.32;;;;;;;;;;4502064;28;20054;-59
2021/07/20 02:39:34;;;;;;;5.95;4.40;;;;;;;;;;4486355;28;20041;-59
2021/07/20 02:41:46;;;;;;;6.70;4.50;;;;;;;;;;4520873;28;20056;-59
2021/07/20 02:43:57;;;;;;;6.45;4.53;;;;;;;;;;4520579;28;20489;-58
2021/07/20 02:46:10;;;;;;;5.75;4.28;;;;;;;;;;4502789;28;20053;-59
2021/07/20 02:48:26;;;;;;;6.15;4.20;;;;;;;;;;4486851;28;20045;-58
2021/07/20 02:50:36;;;;;;;5.85;4.18;;;;;;;;;;4486084;28;20046;-59
2021/07/20 02:52:58;;;;;;;6.13;4.60;;;;;;;;;;4519671;28;20030;-59
2021/07/20 02:55:16;;;;;;;7.00;4.63;;;;;;;;;;4486259;28;20042;-58
2021/07/20 02:57:29;;;;;;;6.20;4.47;;;;;;;;;;4481167;28;20026;-58
2021/07/20 02:59:43;;;;;;;7.00;4.57;;;;;;;;;;4502541;28;21544;-58
2021/07/20 03:02:02;;;;;;;5.88;4.20;;;;;;;;;;4486359;28;21001;-58
2021/07/20 03:04:13;;;;;;;6.78;4.55;;;;;;;;;;4500701;28;20038;-58
2021/07/20 03:06:25;;;;;;;8.13;4.77;;;;;;;;;;4520358;28;20470;-58
2021/07/20 03:08:37;;;;;;;5.68;4.55;;;;;;;;;;4501449;28;20824;-59
2021/07/20 03:11:09;;;;;;;6.65;4.65;;;;;;;;;;4519366;28;20095;-59
2021/07/20 03:13:24;;;;;;;5.93;4.40;;;;;;;;;;4501477;28;20034;-59
2021/07/20 03:15:36;;;;;;;7.00;4.43;;;;;;;;;;4502533;28;20601;-59
2021/07/20 03:17:48;;;;;;;7.18;4.75;;;;;;;;;;4519771;28;20065;-58
2021/07/20 03:20:00;;;;;;;6.30;4.30;;;;;;;;;;4494128;28;20605;-59
2021/07/20 03:22:15;;;;;;;7.13;4.60;;;;;;;;;;4502003;28;20045;-59
2021/07/20 03:24:35;;;;;;;7.05;4.68;;;;;;;;;;4497050;28;20036;-59
2021/07/20 03:26:49;;;;;;;5.65;4.28;;;;;;;;;;4518390;28;20616;-58
2021/07/20 03:29:00;;;;;;;6.03;4.70;;;;;;;;;;4501501;28;20030;-59
2021/07/20 03:31:13;;;;;;;6.43;4.40;;;;;;;;;;4485385;28;20030;-58
2021/07/20 03:33:24;;;;;;;6.90;4.43;;;;;;;;;;4502339;28;21016;-59
2021/07/20 03:35:58;;;;;;;5.70;3.97;;;;;;;;;;4478907;28;20099;-59
2021/07/20 03:38:10;;;;;;;7.10;4.43;;;;;;;;;;4518198;28;20033;-59
2021/07/20 03:40:24;;;;;;;6.50;4.57;;;;;;;;;;4480791;28;20034;-59
2021/07/20 03:42:39;;;;;;;6.00;4.13;;;;;;;;;;4501998;28;20026;-59
2021/07/20 03:44:50;;;;;;;5.95;4.05;;;;;;;;;;4502084;28;20034;-59
2021/07/20 03:47:01;;;;;;;6.55;4.55;;;;;;;;;;4490939;28;21537;-59
2021/07/20 03:49:12;;;;;;;6.00;4.38;;;;;;;;;;4519671;28;20037;-59
2021/07/20 03:51:29;;;;;;;6.88;4.32;;;;;;;;;;4502260;28;20030;-59
2021/07/20 03:53:40;;;;;;;5.93;4.30;;;;;;;;;;4501658;28;20048;-59
2021/07/20 03:55:53;;;;;;;6.73;4.37;;;;;;;;;;4495539;28;20045;-59
2021/07/20 03:58:04;;;;;;;5.50;3.90;;;;;;;;;;4519534;28;20041;-59
2021/07/20 04:00:16;;;;;;;7.43;4.53;;;;;;;;;;4518972;28;20128;-59
2021/07/20 04:02:30;;;;;;;6.13;4.43;;;;;;;;;;4504707;28;20052;-59
2021/07/20 04:04:50;;;;;;;5.75;4.40;;;;;;;;;;4475322;28;20530;-59
2021/07/20 04:07:01;;;;;;;6.07;4.20;;;;;;;;;;4498900;28;20510;-59
2021/07/20 04:09:20;;;;;;;5.82;4.10;;;;;;;;;;4504561;28;20144;-59
2021/07/20 04:11:50;;;;;;;7.10;4.60;;;;;;;;;;4507619;28;20046;-59
2021/07/20 04:14:03;;;;;;;6.85;4.35;;;;;;;;;;4471821;28;20034;-59
2021/07/20 04:16:29;;;;;;;5.60;4.18;;;;;;;;;;4489426;28;20030;-59
2021/07/20 04:18:40;;;;;;;6.30;4.30;;;;;;;;;;4498327;28;20399;-59
2021/07/20 04:20:55;;;;;;;6.38;3.90;;;;;;;;;;4503977;28;20123;-58
2021/07/20 04:23:06;;;;;;;6.40;4.40;;;;;;;;;;4522202;28;20029;-59
2021/07/20 04:25:24;;;;;;;6.43;4.43;;;;;;;;;;4486991;28;20030;-58
2021/07/20 04:27:42;;;;;;;6.03;3.95;;;;;;;;;;4489555;28;20762;-59
2021/07/20 04:29:53;;;;;;;6.82;4.40;;;;;;;;;;4503804;28;20030;-59
2021/07/20 04:32:05;;;;;;;6.73;4.50;;;;;;;;;;4499213;28;20045;-59
2021/07/20 04:34:17;;;;;;;5.35;3.92;;;;;;;;;;4521304;28;20038;-59
2021/07/20 04:36:54;;;;;;;6.50;4.35;;;;;;;;;;4490684;28;20625;-59
2021/07/20 04:39:18;;;;;;;6.80;4.45;;;;;;;;;;4488716;28;20034;-59
2021/07/20 04:41:29;;;;;;;6.53;4.25;;;;;;;;;;4492064;28;20429;-59
2021/07/20 04:43:42;;;;;;;6.45;4.18;;;;;;;;;;4485334;28;20062;-59
2021/07/20 04:45:56;;;;;;;7.60;4.47;;;;;;;;;;4486902;28;20043;-59
2021/07/20 04:48:07;;;;;;;6.15;4.18;;;;;;;;;;4503535;28;20518;-59
2021/07/20 04:50:28;;;;;;;7.03;4.18;;;;;;;;;;4509639;28;20089;-59
2021/07/20 04:52:41;;;;;;;5.45;3.97;;;;;;;;;;4503663;28;20037;-59
2021/07/20 04:54:52;;;;;;;6.82;4.18;;;;;;;;;;4498640;28;20035;-59
2021/07/20 04:57:03;;;;;;;4.93;3.80;;;;;;;;;;4481828;28;20031;-59
2021/07/20 04:59:16;;;;;;;5.80;4.13;;;;;;;;;;4502836;28;20038;-59
2021/07/20 05:01:27;;;;;;;5.45;3.85;;;;;;;;;;4496520;28;20027;-59
2021/07/20 05:03:42;;;;;;;6.05;4.03;;;;;;;;;;4486713;28;20032;-59
2021/07/20 05:05:56;;;;;;;6.10;4.20;;;;;;;;;;4503624;28;20813;-59
2021/07/20 05:08:13;;;;;;;6.43;3.95;;;;;;;;;;4502797;28;20124;-59
2021/07/20 05:10:26;;;;;;;6.60;4.00;;;;;;;;;;4489367;28;20569;-59
2021/07/20 05:12:54;;;;;;;6.13;3.97;;;;;;;;;;4521126;28;20135;-59
2021/07/20 05:15:06;;;;;;;6.35;4.28;;;;;;;;;;4489729;28;20092;-59
2021/07/20 05:17:21;;;;;;;6.97;4.38;;;;;;;;;;4503529;28;21267;-59
2021/07/20 05:19:33;;;;;;;6.47;3.97;;;;;;;;;;4503213;28;20045;-58
2021/07/20 05:21:56;;;;;;;6.97;4.35;;;;;;;;;;4498131;28;20116;-58
2021/07/20 05:24:16;;;;;;;6.78;4.28;;;;;;;;;;4502784;28;20045;-59
2021/07/20 05:26:31;;;;;;;6.60;4.15;;;;;;;;;;4477361;28;20055;-59
2021/07/20 05:28:42;;;;;;;7.77;4.50;;;;;;;;;;4487018;28;20117;-60
2021/07/20 05:30:57;;;;;;;5.75;4.22;;;;;;;;;;4486669;28;20280;-59
2021/07/20 05:33:09;;;;;;;7.03;4.50;;;;;;;;;;4520797;28;20044;-59
2021/07/20 05:35:42;;;;;;;8.00;4.30;;;;;;;;;;4500754;28;20067;-59
2021/07/20 05:37:53;;;;;;;7.22;4.55;;;;;;;;;;4475832;28;20086;-59
2021/07/20 05:40:07;;;;;;;8.32;4.95;;;;;;;;;;4503575;28;20687;-59
2021/07/20 05:42:23;;;;;;;6.72;4.50;;;;;;;;;;4495013;28;20035;-59
2021/07/20 05:44:35;;;;;;;7.05;4.68;;;;;;;;;;4502842;28;21374;-58
2021/07/20 05:46:47;;;;;;;6.82;4.45;;;;;;;;;;4521321;28;20048;-60
2021/07/20 05:48:58;;;;;;;5.65;3.60;;;;;;;;;;4502820;28;20640;-58
2021/07/20 05:51:15;;;;;;;6.50;4.43;;;;;;;;;;4486971;28;20034;-58
2021/07/20 05:53:47;;;;;;;6.30;4.13;;;;;;;;;;4492701;28;20066;-57
2021/07/20 05:56:17;;;;;;;6.97;3.95;;;;;;;;;;4521093;28;20045;-58
2021/07/20 05:58:36;;;;;;;4.05;2.80;;;;;;;;;;4491897;28;20990;-58
2021/07/20 06:00:50;;;;;;;3.42;2.78;;;;;;;;;;4520159;28;20440;-58
2021/07/20 06:03:02;;;;;;;5.45;3.97;;;;;;;;;;4502787;28;20037;-58
2021/07/20 06:05:13;;;;;;;6.13;3.90;;;;;;;;;;4496894;28;20648;-58
2021/07/20 06:07:24;;;;;;;;;;;;;;;;;;4489765;28;20125;-58
2021/07/20 06:09:35;;;;;;;5.67;3.60;;;;;;;;;;4518677;28;19917;-58
2021/07/20 06:11:47;;;;;;;3.70;2.85;;;;;;;;;;4486250;28;20038;-58
2021/07/20 06:13:57;;;;;;;4.68;3.10;;;;;;;;;;4506157;28;20113;-58
2021/07/20 06:16:09;;;;;;;5.00;3.37;;;;;;;;;;4506498;28;20037;-58
2021/07/20 06:18:20;;;;;;;5.32;3.20;;;;;;;;;;4519962;28;20112;-58
2021/07/20 06:20:30;;;;;;;5.00;3.20;;;;;;;;;;4520354;28;20025;-58
2021/07/20 06:23:05;;;;;;;4.13;2.70;;;;;;;;;;4498624;28;20494;-59
2021/07/20 06:25:21;;;;;;;5.78;3.40;;;;;;;;;;4518781;28;20033;-58
2021/07/20 06:27:33;;;;;;;5.35;3.42;;;;;;;;;;4492635;28;20067;-58
2021/07/20 06:29:44;;;;;;;4.90;2.97;;;;;;;;;;4520055;28;20029;-58
2021/07/20 06:31:55;;;;;;;5.15;3.42;;;;;;;;;;4495274;28;20762;-58
2021/07/20 06:34:06;;;;;;;4.65;3.33;;;;;;;;;;4519896;28;20037;-59
2021/07/20 06:36:17;;;;;;;5.90;3.60;;;;;;;;;;4502372;28;20367;-58
2021/07/20 06:38:28;;;;;;;4.47;3.08;;;;;;;;;;4519853;28;20029;-58
2021/07/20 06:40:38;;;;;;;5.47;3.03;;;;;;;;;;4500854;28;20034;-58
2021/07/20 06:42:50;;;;;;;4.83;2.87;;;;;;;;;;4519664;28;20033;-58
2021/07/20 06:45:00;;;;;;;5.07;3.42;;;;;;;;;;4496393;28;20030;-58
2021/07/20 06:47:16;;;;;;;5.70;2.92;;;;;;;;;;4501757;28;20050;-57
2021/07/20 06:49:27;;;;;;;4.85;3.10;;;;;;;;;;4501664;28;20052;-57
2021/07/20 06:51:37;;;;;;;3.90;2.63;;;;;;;;;;4485401;28;20038;-58
2021/07/20 06:53:48;;;;;;;4.00;2.60;;;;;;;;;;4520203;28;20087;-58
2021/07/20 06:56:00;;;;;;;3.30;2.10;;;;;;;;;;4520190;28;20560;-57
2021/07/20 06:58:12;;;;;;;3.92;2.45;;;;;;;;;;4478535;28;20027;-58
2021/07/20 07:00:22;;;;;;;4.30;2.90;;;;;;;;;;4493394;28;20039;-57
2021/07/20 07:02:35;;;;;;;4.10;2.50;;;;;;;;;;4495925;28;20069;-58
2021/07/20 07:04:59;;;;;;;5.05;2.35;;;;;;;;;;4519899;28;20038;-58
2021/07/20 07:07:10;;;;;;;3.90;2.50;;;;;;;;;;4495200;28;20046;-58
2021/07/20 07:09:27;;;;;;;4.25;2.65;;;;;;;;;;4500873;28;20042;-58
2021/07/20 07:11:38;;;;;;;4.45;2.83;;;;;;;;;;4500314;28;20146;-58
2021/07/20 07:13:49;;;;;;;3.78;2.20;;;;;;;;;;4520319;28;20037;-58
2021/07/20 07:16:00;;;;;;;3.45;2.30;;;;;;;;;;4504650;28;20038;-58
2021/07/20 07:18:11;;;;;;;3.55;2.58;;;;;;;;;;4495705;28;20030;-57
2021/07/20 07:20:25;;;;;;;3.90;2.73;;;;;;;;;;4495445;28;20582;-58
2021/07/20 07:22:37;;;;;;;3.78;2.33;;;;;;;;;;4518184;28;20812;-58
2021/07/20 07:24:48;;;;;;;5.03;2.60;;;;;;;;;;4501385;28;20072;-58
2021/07/20 07:27:00;;;;;;;3.40;2.33;;;;;;;;;;4501564;28;20228;-59
2021/07/20 07:29:13;;;;;;;3.65;2.53;;;;;;;;;;4501460;28;20026;-59
2021/07/20 07:31:23;;;;;;;4.30;2.70;;;;;;;;;;4519690;28;20083;-59
2021/07/20 07:33:35;;;;;;;5.03;2.90;;;;;;;;;;4501893;28;20045;-57
2021/07/20 07:35:46;;;;;;;;;;;;;;;;;;4498935;28;20038;-58
2021/07/20 07:37:59;;;;;;;4.57;3.03;;;;;;;;;;4504869;28;20030;-57
2021/07/20 07:40:11;;;;;;;4.75;3.13;;;;;;;;;;4494168;28;20762;-58
2021/07/20 07:42:22;;;;;;;4.68;2.95;;;;;;;;;;4505022;28;20576;-58
2021/07/20 07:44:33;;;;;;;4.50;2.90;;;;;;;;;;4490888;28;20038;-58
2021/07/20 07:46:44;;;;;;;5.20;2.90;;;;;;;;;;4504559;28;20046;-58
2021/07/20 07:48:55;;;;;;;3.75;2.70;;;;;;;;;;4507538;28;20038;-58
2021/07/20 07:51:07;;;;;;;4.13;2.70;;;;;;;;;;4521852;28;20033;-58
2021/07/20 07:53:18;;;;;;;3.53;2.60;;;;;;;;;;4522169;28;20253;-58
2021/07/20 07:55:28;;;;;;;4.97;2.87;;;;;;;;;;4523343;28;20042;-58
2021/07/20 07:57:42;;;;;;;4.35;2.80;;;;;;;;;;4522012;28;20052;-57
2021/07/20 07:59:56;;;;;;;4.30;2.83;;;;;;;;;;4504333;28;20034;-58
2021/07/20 08:02:08;;;;;;;4.20;2.55;;;;;;;;;;4507165;28;20034;-58
2021/07/20 08:04:29;;;;;;;4.80;3.15;;;;;;;;;;4504805;28;20697;-57
2021/07/20 08:06:41;;;;;;;4.50;3.30;;;;;;;;;;4522457;28;20045;-58
2021/07/20 08:08:53;;;;;;;4.50;2.63;;;;;;;;;;4503984;28;20356;-57
2021/07/20 08:11:05;;;;;;;4.82;3.10;;;;;;;;;;4505074;28;20100;-60
2021/07/20 08:13:16;;;;;;;4.05;2.63;;;;;;;;;;4474329;28;21306;-61
2021/07/20 08:15:26;;;;;;;5.13;3.07;;;;;;;;;;4500487;28;20067;-58
2021/07/20 08:17:37;;;;;;;4.23;2.70;;;;;;;;;;4505965;28;20273;-58
2021/07/20 08:19:47;;;;;;;4.77;3.20;;;;;;;;;;4504931;28;20045;-59
2021/07/20 08:22:01;;;;;;;4.10;2.87;;;;;;;;;;4522868;28;20038;-58
2021/07/20 08:24:13;;;;;;;3.85;2.97;;;;;;;;;;4498082;28;20100;-58
2021/07/20 08:26:31;;;;;;;4.10;2.72;;;;;;;;;;4498108;28;20054;-59
2021/07/20 08:28:46;;;;;;;4.40;2.90;;;;;;;;;;4504127;28;20113;-58
2021/07/20 08:31:02;;;;;;;5.15;3.40;;;;;;;;;;4522720;28;20046;-58
2021/07/20 08:33:18;;;;;;;5.57;3.50;;;;;;;;;;4508084;28;20038;-58
2021/07/20 08:35:30;;;;;;;4.47;3.17;;;;;;;;;;4522232;28;20044;-58
2021/07/20 08:37:42;;;;;;;4.70;3.08;;;;;;;;;;4521966;28;20045;-58
2021/07/20 08:39:54;;;;;;;4.65;2.92;;;;;;;;;;4508312;28;20045;-58
2021/07/20 08:42:12;;;;;;;4.85;3.17;;;;;;;;;;4498632;28;20042;-58
2021/07/20 08:44:41;;;;;;;4.82;3.00;;;;;;;;;;4498497;28;20117;-58
2021/07/20 08:47:11;;;;;;;4.82;3.35;;;;;;;;;;4521594;28;20047;-58
2021/07/20 08:49:41;;;;;;;4.40;2.90;;;;;;;;;;4522253;28;20050;-58
2021/07/20 08:51:59;;;;;;;6.03;3.17;;;;;;;;;;4504071;28;20066;-58
2021/07/20 08:54:17;;;;;;;4.47;3.00;;;;;;;;;;4488916;28;20042;-59
2021/07/20 08:56:28;;;;;;;4.05;2.80;;;;;;;;;;4521836;28;20628;-58
2021/07/20 08:58:59;;;;;;;4.50;2.92;;;;;;;;;;4487650;28;20035;-58
2021/07/20 09:01:14;;;;;;;5.20;3.15;;;;;;;;;;4521338;28;20033;-58
2021/07/20 09:03:24;;;;;;;4.53;3.03;;;;;;;;;;4480307;28;20039;-58
2021/07/20 09:05:43;;;;;;;3.63;2.70;;;;;;;;;;4521924;28;20034;-58
2021/07/20 09:07:54;;;;;;;4.53;3.00;;;;;;;;;;4504118;28;20781;-58
2021/07/20 09:10:10;;;;;;;5.03;3.07;;;;;;;;;;4504993;28;20048;-58
2021/07/20 09:12:26;;;;;;;5.10;3.00;;;;;;;;;;4522045;28;20033;-58
2021/07/20 09:14:52;;;;;;;4.07;2.90;;;;;;;;;;4499663;28;20624;-58
2021/07/20 09:17:02;;;;;;;5.32;3.10;;;;;;;;;;4504539;28;20038;-59
2021/07/20 09:19:28;;;;;;;4.63;2.87;;;;;;;;;;4522076;28;20422;-58
2021/07/20 09:21:45;;;;;;;5.43;2.95;;;;;;;;;;4478794;28;20543;-58
2021/07/20 09:24:18;;;;;;;5.03;2.97;;;;;;;;;;4503939;28;20141;-58
2021/07/20 09:26:36;;;;;;;4.65;3.13;;;;;;;;;;4496545;28;20676;-58
2021/07/20 09:28:54;;;;;;;4.63;3.30;;;;;;;;;;4504557;28;20522;-59
2021/07/20 09:31:33;;;;;;;5.28;3.13;;;;;;;;;;4521425;28;20030;-58
2021/07/20 09:33:57;;;;;;;4.22;3.08;;;;;;;;;;4504012;28;20042;-58
2021/07/20 09:36:10;;;;;;;4.90;3.00;;;;;;;;;;4503798;28;20816;-59
2021/07/20 09:38:29;;;;;;;5.32;3.10;;;;;;;;;;4521310;28;20036;-58
2021/07/20 09:40:50;;;;;;;5.82;3.67;;;;;;;;;;4521105;28;20718;-58
2021/07/20 09:43:10;;;;;;;5.40;3.35;;;;;;;;;;4503303;28;20056;-59
2021/07/20 09:45:31;;;;;;;4.97;2.97;;;;;;;;;;4502548;28;20077;-58
2021/07/20 09:47:59;;;;;;;5.25;3.33;;;;;;;;;;4502947;28;20084;-58
2021/07/20 09:50:16;;;;;;;4.47;2.83;;;;;;;;;;4520935;28;21259;-59
2021/07/20 09:52:42;;;;;;;5.80;3.40;;;;;;;;;;4487419;28;20043;-57
2021/07/20 09:54:58;;;;;;;4.03;2.90;;;;;;;;;;4520747;28;20041;-58
2021/07/20 09:57:21;;;;;;;5.50;3.03;;;;;;;;;;4521347;28;20041;-58
2021/07/20 09:59:35;;;;;;;4.60;3.00;;;;;;;;;;4521096;28;20037;-58
2021/07/20 10:01:51;;;;;;;4.78;3.13;;;;;;;;;;4486572;28;20124;-58
2021/07/20 10:04:04;;;;;;;4.03;2.92;;;;;;;;;;4496578;28;20096;-58
2021/07/20 10:06:17;;;;;;;4.22;3.08;;;;;;;;;;4520688;28;20144;-59
2021/07/20 10:08:34;;;;;;;6.03;3.10;;;;;;;;;;4520275;28;20215;-57
2021/07/20 10:10:55;;;;;;;3.90;2.85;;;;;;;;;;4502496;28;20522;-57
2021/07/20 10:13:07;;;;;;;;;;;;;;;;;;4503344;28;20085;-58
2021/07/20 10:15:25;;;;;;;4.15;2.65;;;;;;;;;;4520306;28;19984;-58
2021/07/20 10:17:51;;;;;;;4.03;3.00;;;;;;;;;;4496178;28;22051;-58
2021/07/20 10:20:07;;;;;;;4.75;2.92;;;;;;;;;;4520732;28;20048;-58
2021/07/20 10:22:52;;;;;;;4.40;2.95;;;;;;;;;;4502835;28;20081;-58
2021/07/20 10:25:05;;;;;;;4.45;3.00;;;;;;;;;;4519332;28;20041;-58
2021/07/20 10:27:34;;;;;;;4.28;2.80;;;;;;;;;;4502101;28;20196;-58
2021/07/20 10:30:04;;;;;;;4.72;3.10;;;;;;;;;;4491839;28;20161;-58
2021/07/20 10:32:19;;;;;;;5.22;3.30;;;;;;;;;;4520428;28;20147;-58
2021/07/20 10:34:31;;;;;;;4.70;3.00;;;;;;;;;;4502821;28;20033;-58
2021/07/20 10:36:55;;;;;;;5.25;3.40;;;;;;;;;;4486017;28;20093;-58
2021/07/20 10:39:12;;;;;;;4.20;3.03;;;;;;;;;;4520239;28;20033;-58
2021/07/20 10:41:48;;;;;;;5.07;3.03;;;;;;;;;;4520876;28;20034;-58
2021/07/20 10:44:02;;;;;;;4.70;3.00;;;;;;;;;;4519281;28;20041;-58
2021/07/20 10:46:14;;;;;;;5.50;3.30;;;;;;;;;;4502738;28;20041;-58
2021/07/20 10:48:30;;;;;;;4.40;3.05;;;;;;;;;;4502600;28;20034;-57
2021/07/20 10:50:55;;;;;;;4.22;2.97;;;;;;;;;;4521056;28;20863;-57
2021/07/20 10:53:14;;;;;;;3.92;2.75;;;;;;;;;;4491232;28;20026;-58
2021/07/20 10:56:02;;;;;;;4.32;2.65;;;;;;;;;;4503163;28;20030;-57
2021/07/20 10:58:39;;;;;;;3.75;2.78;;;;;;;;;;4502641;28;20059;-58
2021/07/20 11:01:07;;;;;;;4.75;2.90;;;;;;;;;;4495728;28;20782;-58
2021/07/20 11:03:40;;;;;;;4.53;2.85;;;;;;;;;;4502844;28;20042;-57
2021/07/20 11:05:51;;;;;;;4.35;2.72;;;;;;;;;;4505826;28;20056;-58
2021/07/20 11:08:04;;;;;;;4.28;2.90;;;;;;;;;;4502398;28;20034;-58
2021/07/20 11:10:49;;;;;;;4.20;2.88;;;;;;;;;;4505560;28;20144;-58
2021/07/20 11:13:16;;;;;;;4.72;3.17;;;;;;;;;;4470561;28;20105;-58
2021/07/20 11:15:28;;;;;;;5.13;2.95;;;;;;;;;;4524549;28;20045;-58
2021/07/20 11:17:39;;;;;;;3.72;2.60;;;;;;;;;;4508083;28;20045;-58
2021/07/20 11:19:52;;;;;;;4.70;2.90;;;;;;;;;;4508447;28;21213;-57
2021/07/20 11:22:03;;;;;;;4.10;2.75;;;;;;;;;;4508869;28;20069;-58
2021/07/20 11:24:16;;;;;;;;;;;;;;;;;;4526833;28;20168;-58
2021/07/20 11:26:29;;;;;;;3.55;2.60;;;;;;;;;;4525009;28;19921;-58
2021/07/20 11:28:43;;;;;;;4.22;2.85;;;;;;;;;;4500790;28;20026;-57
2021/07/20 11:30:56;;;;;;;3.92;2.65;;;;;;;;;;4509105;28;20071;-58
2021/07/20 11:33:18;;;;;;;4.43;2.90;;;;;;;;;;4498533;28;20235;-58
2021/07/20 11:35:31;;;;;;;4.22;2.95;;;;;;;;;;4507878;28;20069;-58
2021/07/20 11:37:48;;;;;;;5.13;3.00;;;;;;;;;;4501902;28;20030;-59
2021/07/20 11:40:06;;;;;;;4.32;2.90;;;;;;;;;;4491345;28;20069;-58
2021/07/20 11:42:24;;;;;;;4.38;2.80;;;;;;;;;;4506977;28;20033;-57
2021/07/20 11:44:44;;;;;;;4.03;2.65;;;;;;;;;;4507809;28;20037;-58
2021/07/20 11:47:01;;;;;;;4.55;2.67;;;;;;;;;;4524769;28;20037;-58
2021/07/20 11:49:57;;;;;;;4.45;3.10;;;;;;;;;;4507843;28;20030;-58
2021/07/20 11:52:34;;;;;;;4.38;3.05;;;;;;;;;;4421180;28;20040;-58
2021/07/20 11:55:03;;;;;;;4.70;3.05;;;;;;;;;;4402148;29;20059;-58
2021/07/20 11:57:51;;;;;;;4.85;3.15;;;;;;;;;;4403150;29;20078;-58
2021/07/20 12:00:15;;;;;;;4.50;2.80;;;;;;;;;;4403120;29;20052;-58
2021/07/20 12:03:03;;;;;;;4.70;3.00;;;;;;;;;;4402970;29;20079;-58
2021/07/20 12:05:44;;;;;;;4.63;2.95;;;;;;;;;;4402527;29;20041;-58
2021/07/20 12:08:17;;;;;;;4.53;3.20;;;;;;;;;;4402834;29;20094;-58
2021/07/20 12:10:40;;;;;;;5.63;3.30;;;;;;;;;;4386912;29;20269;-58
2021/07/20 12:12:56;;;;;;;4.43;2.90;;;;;;;;;;4403020;29;20040;-58
2021/07/20 12:15:07;;;;;;;5.47;3.13;;;;;;;;;;4403658;29;20036;-58
2021/07/20 12:17:18;;;;;;;3.63;2.50;;;;;;;;;;4386072;29;20897;-58
2021/07/20 12:19:33;;;;;;;4.33;2.87;;;;;;;;;;4386552;29;20263;-58
2021/07/20 12:21:46;;;;;;;4.18;2.70;;;;;;;;;;4383893;29;20077;-58
2021/07/20 12:24:05;;;;;;;4.18;2.80;;;;;;;;;;4459835;28;20574;-58
2021/07/20 12:26:16;;;;;;;3.42;2.40;;;;;;;;;;4449813;28;20047;-58
2021/07/20 12:28:26;;;;;;;4.35;2.80;;;;;;;;;;4466631;28;20043;-58
2021/07/20 12:30:37;;;;;;;4.10;2.73;;;;;;;;;;4450226;28;20516;-57
2021/07/20 12:32:48;;;;;;;4.70;2.40;;;;;;;;;;4514796;28;20049;-58
2021/07/20 12:34:59;;;;;;;3.33;2.50;;;;;;;;;;4503504;28;20731;-58
2021/07/20 12:37:09;;;;;;;4.43;2.50;;;;;;;;;;4522665;28;20153;-58
2021/07/20 12:39:21;;;;;;;4.43;2.57;;;;;;;;;;4496692;28;20523;-58
2021/07/20 12:41:34;;;;;;;3.78;2.50;;;;;;;;;;4506979;28;20034;-58
2021/07/20 12:43:45;;;;;;;3.30;2.28;;;;;;;;;;4503327;28;20021;-58
2021/07/20 12:46:11;;;;;;;3.30;2.30;;;;;;;;;;4502808;28;20053;-58
2021/07/20 12:48:27;;;;;;;3.97;2.53;;;;;;;;;;4522310;28;20042;-57
2021/07/20 12:50:38;;;;;;;3.00;1.90;;;;;;;;;;4522078;28;20498;-57
2021/07/20 12:52:50;;;;;;;3.55;2.35;;;;;;;;;;4521175;28;20076;-58
2021/07/20 12:55:00;;;;;;;2.88;2.00;;;;;;;;;;4507804;28;20033;-58
2021/07/20 12:57:12;;;;;;;4.23;2.47;;;;;;;;;;4521467;28;20585;-58
2021/07/20 12:59:23;;;;;;;3.97;2.13;;;;;;;;;;4521670;28;20355;-58
2021/07/20 13:01:36;;;;;;;3.77;2.40;;;;;;;;;;4496969;28;20037;-58
2021/07/20 13:03:46;;;;;;;3.38;2.10;;;;;;;;;;4503653;28;20042;-58
2021/07/20 13:05:57;;;;;;;3.17;2.10;;;;;;;;;;4522442;28;20037;-58
2021/07/20 13:08:08;;;;;;;3.47;2.20;;;;;;;;;;4496544;28;20092;-57
2021/07/20 13:10:19;;;;;;;;;;;;;;;;;;4522566;28;20080;-58
2021/07/20 13:12:29;;;;;;;3.45;1.73;;;;;;;;;;4503881;28;20369;-57
2021/07/20 13:14:40;;;;;;;2.88;1.60;;;;;;;;;;4522071;28;20095;-58
2021/07/20 13:16:53;;;;;;;2.25;1.50;;;;;;;;;;4521387;28;20112;-58
2021/07/20 13:19:04;;;;;;;2.45;1.50;;;;;;;;;;4503586;28;20038;-58
2021/07/20 13:21:19;;;;;;;2.78;1.63;;;;;;;;;;4504101;28;20057;-58
2021/07/20 13:23:38;;;;;;;2.70;1.60;;;;;;;;;;4505426;28;20026;-57
2021/07/20 13:25:51;;;;;;;2.60;1.75;;;;;;;;;;4497518;28;20121;-57
2021/07/20 13:28:01;;;;;;;2.55;1.90;;;;;;;;;;4521132;28;20302;-58
2021/07/20 13:30:25;;;;;;;2.63;2.00;;;;;;;;;;4503752;28;20379;-57
2021/07/20 13:32:36;;;;;;;1.90;1.40;;;;;;;;;;4492990;28;20983;-58
2021/07/20 13:34:50;;;;;;;;;;;;;;;;;;4496543;28;20494;-58
2021/07/20 13:37:01;;;;;;;2.35;1.55;;;;;;;;;;4521774;28;20027;-57
2021/07/20 13:39:14;;;;;;;2.05;1.50;;;;;;;;;;4503583;28;20065;-57
2021/07/20 13:41:25;;;;;;;2.85;1.52;;;;;;;;;;4521033;28;20651;-58
2021/07/20 13:43:35;;;;;;;3.08;1.55;;;;;;;;;;4503886;28;20033;-58